Keswick, Iowa
Current Conditions -  °F | °C
As of 3:15 AM on Monday 20 Oct 2014 (Local Time) from KOOA Reporting Station
Clear Clear  
Wind Chill: 46°   Ceiling: Unl
Heat Index: 49°   Visibility: 10mi
Dew Point: 45°   Wind: 8mph
Humidity: 85%   Direction: 280°W
Pressure: 29.9"   Gusts: NA
Location:  41.45°N, 92.24°W
Report Text: KOOA 200815Z AUTO 28007KT 10SM CLR 10/07 A2990 RMK AO2 T00970073
Loading
Personal Weather Stations






























Interactive Weather Map
Tropical Storm Tracking
New forecast layout! Learn more

10-Day Weather Forecast

Advertisements
Track Severe Weather on mobile